Terminal Aerodrome Forecast
Issued by NWS Sioux Falls, SD

Home | Current Version | Previous Version | Graphics & Text | Print | Product List | Glossary Off
Versions: 1 2 3 4 5 6 7 8 9 10 11 12 13 14

644
FTUS43 KFSD 170537
TAFHON
TAF
KHON 170537Z 1706/1806 16019G27KT P6SM OVC200
     FM170900 17011KT P6SM BKN200
     FM171200 27007KT P6SM BKN150
     FM171400 33008KT P6SM BKN080
     FM172100 36009KT P6SM BKN100
     FM180500 33008KT P6SM BKN060=

USA.gov is the U.S. government's official web portal to all federal, state and local government web resources and services.